createdAt,value
2023-04-22T00:01:10.816Z,5.60
2023-04-22T00:03:38.680Z,5.88
2023-04-22T00:06:05.954Z,5.93
2023-04-22T00:08:32.482Z,5.93
2023-04-22T00:11:00.010Z,5.82
2023-04-22T00:13:26.674Z,6.00
2023-04-22T00:15:53.322Z,5.63
2023-04-22T00:18:19.975Z,5.93
2023-04-22T00:20:46.905Z,5.78
2023-04-22T00:23:13.555Z,5.57
2023-04-22T00:25:40.638Z,5.88
2023-04-22T00:28:07.273Z,5.68
2023-04-22T00:30:33.955Z,5.45
2023-04-22T00:33:00.665Z,5.50
2023-04-22T00:35:27.673Z,5.78
2023-04-22T00:37:54.276Z,5.97
2023-04-22T00:40:21.542Z,5.70
2023-04-22T00:42:50.570Z,6.07
2023-04-22T00:45:18.930Z,5.97
2023-04-22T00:47:46.700Z,5.53
2023-04-22T00:50:13.969Z,5.53
2023-04-22T00:52:41.512Z,5.70
2023-04-22T00:55:10.025Z,5.72
2023-04-22T00:57:37.902Z,6.10
2023-04-22T01:00:06.937Z,6.43
2023-04-22T01:02:33.895Z,5.80
2023-04-22T01:05:01.164Z,6.20
2023-04-22T01:07:28.523Z,6.05
2023-04-22T01:09:55.138Z,6.30
2023-04-22T01:12:21.732Z,5.82
2023-04-22T01:14:48.518Z,5.78
2023-04-22T01:17:16.810Z,5.68
2023-04-22T01:19:44.189Z,5.38
2023-04-22T01:22:13.426Z,6.32
2023-04-22T01:24:40.326Z,6.30
2023-04-22T01:27:07.689Z,6.47
2023-04-22T01:29:36.821Z,6.20
2023-04-22T01:32:04.256Z,5.85
2023-04-22T01:34:32.018Z,6.20
2023-04-22T01:36:58.605Z,6.85
2023-04-22T01:39:25.295Z,6.10
2023-04-22T01:41:52.286Z,6.55
2023-04-22T01:44:19.726Z,6.88
2023-04-22T01:46:46.295Z,6.60
2023-04-22T01:49:12.843Z,6.28
2023-04-22T01:51:39.636Z,6.57
2023-04-22T01:54:06.195Z,6.80
2023-04-22T01:56:32.818Z,6.97
2023-04-22T01:58:59.361Z,6.57
2023-04-22T02:01:25.982Z,6.57
2023-04-22T02:03:52.774Z,6.15
2023-04-22T02:06:19.484Z,7.05
2023-04-22T02:08:46.316Z,6.53
2023-04-22T02:11:12.944Z,7.07
2023-04-22T02:13:40.986Z,6.82
2023-04-22T02:16:08.336Z,6.68
2023-04-22T02:18:35.088Z,6.75
2023-04-22T02:21:01.813Z,7.03
2023-04-22T02:23:28.896Z,6.47
2023-04-22T02:25:55.966Z,6.70
2023-04-22T02:28:23.190Z,6.78
2023-04-22T02:30:49.801Z,6.90
2023-04-22T02:33:16.389Z,6.45
2023-04-22T02:35:42.959Z,6.60
2023-04-22T02:38:10.753Z,6.78
2023-04-22T02:40:37.408Z,7.00
2023-04-22T02:43:04.533Z,6.78
2023-04-22T02:45:31.402Z,6.75
2023-04-22T02:47:58.180Z,6.80
2023-04-22T02:50:24.831Z,7.22
2023-04-22T02:52:51.510Z,7.15
2023-04-22T02:55:18.231Z,7.05
2023-04-22T02:57:45.613Z,7.38
2023-04-22T03:00:12.319Z,7.95
2023-04-22T03:02:39.153Z,7.80
2023-04-22T03:05:06.432Z,7.63
2023-04-22T03:07:32.983Z,8.23
2023-04-22T03:09:59.601Z,7.82
2023-04-22T03:12:26.481Z,7.78
2023-04-22T03:14:53.049Z,7.68
2023-04-22T03:17:19.692Z,7.30
2023-04-22T03:19:46.911Z,7.80
2023-04-22T03:22:13.460Z,8.27
2023-04-22T03:24:40.383Z,7.93
2023-04-22T03:27:07.084Z,8.43
2023-04-22T03:29:33.695Z,8.43
2023-04-22T03:32:00.529Z,8.05
2023-04-22T03:34:27.209Z,8.25
2023-04-22T03:36:53.815Z,8.45
2023-04-22T03:39:20.382Z,8.35
2023-04-22T03:41:46.947Z,8.65
2023-04-22T03:44:13.526Z,8.63
2023-04-22T03:46:40.361Z,8.70
2023-04-22T03:49:07.395Z,8.45
2023-04-22T03:51:34.777Z,8.15
2023-04-22T03:54:01.331Z,8.35
2023-04-22T03:56:27.860Z,8.65
2023-04-22T03:58:54.554Z,8.18
2023-04-22T04:01:21.122Z,8.50
2023-04-22T04:03:48.116Z,8.00
2023-04-22T04:06:14.972Z,8.23
2023-04-22T04:08:41.508Z,8.27
2023-04-22T04:11:09.664Z,8.52
2023-04-22T04:13:36.198Z,8.18
2023-04-22T04:16:04.041Z,8.15
2023-04-22T04:18:30.846Z,7.50
2023-04-22T04:20:57.447Z,8.15
2023-04-22T04:23:24.114Z,8.15
2023-04-22T04:25:51.851Z,8.07
2023-04-22T04:28:19.454Z,8.10
2023-04-22T04:30:46.124Z,8.00
2023-04-22T04:33:13.075Z,8.15
2023-04-22T04:35:41.619Z,7.78
2023-04-22T04:38:08.253Z,8.43
2023-04-22T04:40:36.043Z,8.00
2023-04-22T04:43:04.445Z,7.95
2023-04-22T04:45:31.021Z,8.50
2023-04-22T04:47:58.339Z,8.27
2023-04-22T04:50:27.714Z,8.18
2023-04-22T04:52:54.678Z,8.73
2023-04-22T04:55:21.335Z,7.93
2023-04-22T04:57:47.872Z,8.32
2023-04-22T05:00:14.937Z,8.43
2023-04-22T05:02:42.035Z,8.05
2023-04-22T05:05:09.514Z,8.88
2023-04-22T05:07:36.085Z,8.57
2023-04-22T05:10:03.449Z,8.88
2023-04-22T05:12:30.179Z,8.60
2023-04-22T05:14:56.764Z,8.98
2023-04-22T05:17:23.568Z,8.65
2023-04-22T05:19:50.184Z,8.90
2023-04-22T05:22:18.477Z,9.25
2023-04-22T05:24:45.128Z,9.43
2023-04-22T05:27:12.210Z,9.05
2023-04-22T05:29:39.025Z,8.52
2023-04-22T05:32:07.458Z,8.85
2023-04-22T05:34:35.463Z,9.52
2023-04-22T05:37:05.732Z,9.43
2023-04-22T05:39:32.400Z,8.32
2023-04-22T05:41:59.072Z,8.40
2023-04-22T05:44:25.612Z,9.40
2023-04-22T05:46:52.183Z,8.27
2023-04-22T05:49:19.009Z,8.70
2023-04-22T05:51:46.009Z,8.07
2023-04-22T05:54:12.573Z,8.55
2023-04-22T05:56:39.221Z,8.27
2023-04-22T05:59:05.830Z,8.15
2023-04-22T06:01:32.486Z,8.27
2023-04-22T06:03:59.325Z,8.35
2023-04-22T06:06:27.331Z,8.40
2023-04-22T06:08:53.978Z,8.60
2023-04-22T06:11:20.932Z,8.30
2023-04-22T06:13:47.578Z,8.25
2023-04-22T06:16:14.241Z,7.50
2023-04-22T06:18:40.945Z,7.65
2023-04-22T06:21:07.522Z,7.28
2023-04-22T06:23:34.233Z,7.72
2023-04-22T06:26:01.580Z,7.80
2023-04-22T06:28:28.476Z,7.75
2023-04-22T06:30:55.222Z,7.50
2023-04-22T06:33:21.907Z,7.50
2023-04-22T06:35:48.574Z,7.32
2023-04-22T06:38:15.481Z,7.22
2023-04-22T06:40:42.041Z,8.05
2023-04-22T06:43:08.962Z,7.60
2023-04-22T06:45:36.023Z,7.65
2023-04-22T06:48:02.662Z,7.78
2023-04-22T06:50:29.644Z,7.53
2023-04-22T06:52:56.248Z,7.05
2023-04-22T06:55:22.821Z,7.00
2023-04-22T06:57:51.083Z,7.82
2023-04-22T07:00:17.875Z,7.43
2023-04-22T07:02:44.538Z,7.45
2023-04-22T07:05:11.119Z,7.00
2023-04-22T07:07:41.311Z,6.93
2023-04-22T07:10:08.189Z,7.32
2023-04-22T07:12:34.903Z,7.60
2023-04-22T07:15:01.476Z,6.65
2023-04-22T07:17:28.067Z,6.40
2023-04-22T07:19:54.702Z,7.07
2023-04-22T07:22:21.229Z,7.07
2023-04-22T07:24:47.815Z,6.55
2023-04-22T07:27:14.438Z,6.65
2023-04-22T07:29:41.438Z,7.28
2023-04-22T07:32:08.431Z,6.82
2023-04-22T07:34:35.225Z,6.95
2023-04-22T07:37:02.085Z,6.55
2023-04-22T07:39:28.616Z,7.00
2023-04-22T07:41:57.491Z,6.90
2023-04-22T07:44:24.313Z,6.45
2023-04-22T07:46:51.160Z,6.53
2023-04-22T07:49:18.510Z,7.03
2023-04-22T07:51:45.282Z,6.95
2023-04-22T07:54:12.146Z,6.40
2023-04-22T07:56:38.746Z,5.80
2023-04-22T07:59:05.951Z,6.10
2023-04-22T08:01:32.955Z,6.63
2023-04-22T08:03:59.988Z,6.47
2023-04-22T08:06:27.972Z,6.45
2023-04-22T08:08:54.605Z,6.88
2023-04-22T08:11:21.175Z,6.63
2023-04-22T08:13:47.775Z,6.90
2023-04-22T08:16:14.409Z,6.45
2023-04-22T08:18:41.083Z,6.50
2023-04-22T08:21:07.657Z,6.45
2023-04-22T08:23:34.348Z,5.80
2023-04-22T08:26:01.093Z,5.82
2023-04-22T08:28:27.723Z,5.95
2023-04-22T08:30:54.500Z,6.18
2023-04-22T08:33:21.304Z,6.35
2023-04-22T08:35:48.254Z,5.90
2023-04-22T08:38:21.238Z,5.53
2023-04-22T08:40:48.954Z,5.28
2023-04-22T08:43:27.771Z,5.75
2023-04-22T08:45:54.502Z,5.18
2023-04-22T08:51:10.990Z,5.72
2023-04-22T08:53:38.246Z,6.18
2023-04-22T08:56:17.236Z,5.47
2023-04-22T08:59:04.607Z,5.38
2023-04-22T09:01:38.880Z,5.40
2023-04-22T09:04:22.452Z,5.15
2023-04-22T09:06:49.320Z,5.25
2023-04-22T09:09:16.164Z,5.22
2023-04-22T09:11:43.116Z,4.95
2023-04-22T09:14:12.507Z,4.57
2023-04-22T09:16:48.274Z,4.57
2023-04-22T09:19:15.775Z,4.43
2023-04-22T09:21:43.579Z,4.10
2023-04-22T09:24:15.872Z,4.03
2023-04-22T09:26:42.855Z,3.63
2023-04-22T09:29:15.126Z,3.80
2023-04-22T09:31:50.513Z,4.00
2023-04-22T09:34:22.608Z,3.65
2023-04-22T09:36:51.733Z,3.45
2023-04-22T09:39:26.748Z,3.50
2023-04-22T09:41:58.618Z,3.60
2023-04-22T09:44:40.265Z,3.20
2023-04-22T09:55:10.178Z,3.60
2023-04-22T09:58:12.132Z,3.45
2023-04-22T10:01:12.022Z,3.30
2023-04-22T10:03:43.130Z,3.22
2023-04-22T10:06:37.014Z,3.40
2023-04-22T10:09:08.303Z,3.13
2023-04-22T10:14:18.118Z,3.50
2023-04-22T10:16:47.878Z,3.28
2023-04-22T10:19:22.920Z,3.58
2023-04-22T10:28:06.275Z,4.22
2023-04-22T10:30:36.790Z,3.97
2023-04-22T10:36:15.491Z,2.75
2023-04-22T10:39:02.682Z,3.00
2023-04-22T10:41:35.692Z,3.38
2023-04-22T10:44:06.978Z,3.90
2023-04-22T10:46:45.570Z,3.75
2023-04-22T10:49:15.947Z,4.20
2023-04-22T10:51:49.769Z,3.08
2023-04-22T10:54:27.356Z,3.67
2023-04-22T10:57:09.598Z,3.50
2023-04-22T10:59:49.429Z,3.05
2023-04-22T11:02:18.000Z,2.80
2023-04-22T11:04:44.931Z,2.58
2023-04-22T11:07:22.719Z,2.88
2023-04-22T11:10:09.672Z,2.47
2023-04-22T11:12:39.302Z,2.85
2023-04-22T11:15:07.249Z,2.97
2023-04-22T11:17:35.015Z,2.67
2023-04-22T11:20:03.307Z,2.92
2023-04-22T11:22:38.653Z,2.45
2023-04-22T11:25:06.795Z,2.60
2023-04-22T11:27:33.414Z,2.65
2023-04-22T11:30:08.194Z,2.30
2023-04-22T11:32:36.291Z,2.40
2023-04-22T11:35:05.271Z,2.28
2023-04-22T11:37:39.273Z,2.47
2023-04-22T11:42:37.572Z,2.38
2023-04-22T11:45:05.520Z,2.17
2023-04-22T11:47:32.867Z,2.13
2023-04-22T11:50:05.076Z,2.00
2023-04-22T11:52:51.845Z,1.80
2023-04-22T11:55:21.023Z,1.95
2023-04-22T11:57:57.001Z,2.40
2023-04-22T12:00:28.257Z,1.80
2023-04-22T12:02:59.124Z,1.83
2023-04-22T12:05:43.290Z,2.33
2023-04-22T12:08:22.496Z,2.05
2023-04-22T12:10:57.995Z,2.28
2023-04-22T12:13:26.336Z,2.10
2023-04-22T12:15:59.075Z,2.13
2023-04-22T12:18:37.205Z,1.73
2023-04-22T12:21:09.604Z,2.20
2023-04-22T12:23:53.167Z,2.00
2023-04-22T12:26:24.548Z,2.17
2023-04-22T12:28:52.296Z,2.30
2023-04-22T12:31:19.382Z,1.73
2023-04-22T12:33:46.832Z,2.50
2023-04-22T12:36:13.950Z,2.10
2023-04-22T12:38:40.717Z,1.80
2023-04-22T12:41:07.690Z,1.80
2023-04-22T12:43:37.756Z,1.98
2023-04-22T12:46:08.189Z,1.67
2023-04-22T12:48:37.257Z,1.60
2023-04-22T12:51:05.225Z,1.73
2023-04-22T12:53:32.078Z,1.70
2023-04-22T12:55:58.812Z,2.10
2023-04-22T12:58:27.561Z,1.70
2023-04-22T13:00:54.263Z,2.25
2023-04-22T13:03:20.993Z,1.85
2023-04-22T13:05:47.805Z,2.05
2023-04-22T13:08:14.655Z,1.65
2023-04-22T13:10:41.222Z,2.00
2023-04-22T13:15:38.801Z,1.80
2023-04-22T13:18:05.708Z,1.88
2023-04-22T13:20:32.776Z,2.00
2023-04-22T13:22:59.355Z,1.80
2023-04-22T13:25:26.097Z,1.80
2023-04-22T13:27:52.717Z,1.80
2023-04-22T13:30:20.025Z,1.70
2023-04-22T13:32:47.048Z,1.33
2023-04-22T13:35:13.727Z,1.70
2023-04-22T13:37:40.411Z,1.60
2023-04-22T13:40:08.254Z,1.83
2023-04-22T13:42:34.968Z,1.90
2023-04-22T13:45:01.727Z,2.00
2023-04-22T13:47:28.485Z,2.22
2023-04-22T13:49:55.073Z,1.80
2023-04-22T13:52:21.696Z,1.73
2023-04-22T13:54:48.318Z,1.60
2023-04-22T13:57:14.896Z,1.50
2023-04-22T13:59:42.225Z,1.83
2023-04-22T14:02:09.182Z,1.70
2023-04-22T14:04:36.120Z,1.52
2023-04-22T14:07:03.828Z,1.90
2023-04-22T14:09:30.664Z,1.77
2023-04-22T14:11:57.595Z,1.45
2023-04-22T14:14:24.249Z,1.60
2023-04-22T14:16:51.641Z,1.67
2023-04-22T14:19:18.959Z,1.60
2023-04-22T14:21:46.059Z,1.65
2023-04-22T14:24:12.757Z,1.75
2023-04-22T14:26:39.482Z,1.65
2023-04-22T14:29:06.252Z,1.60
2023-04-22T14:31:32.877Z,1.70
2023-04-22T14:33:59.495Z,2.03
2023-04-22T14:36:27.759Z,2.33
2023-04-22T14:38:54.301Z,2.10
2023-04-22T14:41:21.494Z,1.80
2023-04-22T14:43:48.112Z,1.80
2023-04-22T14:46:14.799Z,1.80
2023-04-22T14:48:41.508Z,2.30
2023-04-22T14:51:08.113Z,1.75
2023-04-22T14:53:35.003Z,1.70
2023-04-22T14:56:01.580Z,1.95
2023-04-22T14:58:31.297Z,1.98
2023-04-22T15:01:01.360Z,1.60
2023-04-22T15:03:28.165Z,4.63
2023-04-22T15:05:55.405Z,2.40
2023-04-22T15:08:22.200Z,2.47
2023-04-22T15:10:48.778Z,2.20
2023-04-22T15:13:15.480Z,2.25
2023-04-22T15:15:42.430Z,1.73
2023-04-22T15:18:10.449Z,2.20
2023-04-22T15:20:37.156Z,2.53
2023-04-22T15:23:03.878Z,2.35
2023-04-22T15:25:30.525Z,1.92
2023-04-22T15:27:57.277Z,1.80
2023-04-22T15:30:24.578Z,1.88
2023-04-22T15:32:51.160Z,1.70
2023-04-22T15:35:17.848Z,1.70
2023-04-22T15:37:45.608Z,2.00
2023-04-22T15:40:12.201Z,1.48
2023-04-22T15:42:38.769Z,1.67
2023-04-22T15:45:06.466Z,1.60
2023-04-22T15:47:33.772Z,2.05
2023-04-22T15:50:06.571Z,1.90
2023-04-22T15:52:33.510Z,1.95
2023-04-22T15:55:01.648Z,1.58
2023-04-22T15:57:28.623Z,1.90
2023-04-22T16:00:06.665Z,1.70
2023-04-22T16:02:36.950Z,2.00
2023-04-22T16:05:04.165Z,2.03
2023-04-22T16:07:31.051Z,2.00
2023-04-22T16:09:57.782Z,1.90
2023-04-22T16:12:24.568Z,1.80
2023-04-22T16:14:51.442Z,1.92
2023-04-22T16:17:18.266Z,1.83
2023-04-22T16:19:44.998Z,2.00
2023-04-22T16:22:11.785Z,1.95
2023-04-22T16:24:38.380Z,1.95
2023-04-22T16:27:04.917Z,1.88
2023-04-22T16:29:31.444Z,2.10
2023-04-22T16:31:58.001Z,1.92
2023-04-22T16:34:24.568Z,1.90
2023-04-22T16:36:51.224Z,2.25
2023-04-22T16:39:19.016Z,1.80
2023-04-22T16:41:45.837Z,2.22
2023-04-22T16:44:12.547Z,2.08
2023-04-22T16:46:39.210Z,1.75
2023-04-22T16:49:08.449Z,1.92
2023-04-22T16:51:37.048Z,2.28
2023-04-22T16:54:04.016Z,2.10
2023-04-22T16:56:30.605Z,2.20
2023-04-22T16:58:57.180Z,1.80
2023-04-22T17:01:24.172Z,1.90
2023-04-22T17:03:51.078Z,1.90
2023-04-22T17:06:17.955Z,1.83
2023-04-22T17:08:44.986Z,2.35
2023-04-22T17:11:11.818Z,1.83
2023-04-22T17:13:38.430Z,2.65
2023-04-22T17:16:05.250Z,2.08
2023-04-22T17:18:31.868Z,1.83
2023-04-22T17:20:58.500Z,1.95
2023-04-22T17:23:26.812Z,2.03
2023-04-22T17:25:53.364Z,2.03
2023-04-22T17:28:19.981Z,4.45
2023-04-22T17:30:52.034Z,2.50
2023-04-22T17:33:18.559Z,2.50
2023-04-22T17:35:45.517Z,2.30
2023-04-22T17:38:12.438Z,2.10
2023-04-22T17:40:39.482Z,2.10
2023-04-22T17:43:06.025Z,2.25
2023-04-22T17:45:32.659Z,2.03
2023-04-22T17:47:59.230Z,2.40
2023-04-22T17:50:26.019Z,2.33
2023-04-22T17:52:52.646Z,2.83
2023-04-22T17:55:19.290Z,2.90
2023-04-22T17:57:45.938Z,2.60
2023-04-22T18:00:14.476Z,2.10
2023-04-22T18:02:42.185Z,2.58
2023-04-22T18:05:09.560Z,2.58
2023-04-22T18:07:36.179Z,2.78
2023-04-22T18:10:02.856Z,3.13
2023-04-22T18:12:30.736Z,3.53
2023-04-22T18:14:58.300Z,3.75
2023-04-22T18:17:25.088Z,4.25
2023-04-22T18:20:02.860Z,4.20
2023-04-22T18:22:33.010Z,4.05
2023-04-22T18:25:01.837Z,3.72
2023-04-22T18:27:28.872Z,4.10
2023-04-22T18:29:55.706Z,3.92
2023-04-22T18:32:22.490Z,4.50
2023-04-22T18:34:49.230Z,4.00
2023-04-22T18:37:16.262Z,5.07
2023-04-22T18:39:42.928Z,5.43
2023-04-22T18:42:09.760Z,5.18
2023-04-22T18:44:36.790Z,5.30
2023-04-22T18:47:04.526Z,5.03
2023-04-22T18:49:34.206Z,5.60
2023-04-22T18:52:01.114Z,5.93
2023-04-22T18:54:29.427Z,6.05
2023-04-22T18:56:58.196Z,6.20
2023-04-22T18:59:24.937Z,6.78
2023-04-22T19:01:51.876Z,6.80
2023-04-22T19:04:18.602Z,7.35
2023-04-22T19:06:45.304Z,7.50
2023-04-22T19:09:11.929Z,8.38
2023-04-22T19:11:38.796Z,7.50
2023-04-22T19:14:05.860Z,8.45
2023-04-22T19:16:32.727Z,7.97
2023-04-22T19:18:59.377Z,7.93
2023-04-22T19:21:27.022Z,7.88
2023-04-22T19:23:53.785Z,7.63
2023-04-22T19:26:21.955Z,8.13
2023-04-22T19:28:49.031Z,8.23
2023-04-22T19:31:19.165Z,9.15
2023-04-22T19:33:46.011Z,8.13
2023-04-22T19:36:12.622Z,8.32
2023-04-22T19:38:39.317Z,8.70
2023-04-22T19:41:08.363Z,8.60
2023-04-22T19:43:37.057Z,8.73
2023-04-22T19:46:04.555Z,10.23
2023-04-22T19:48:31.458Z,9.40
2023-04-22T19:50:58.486Z,10.02
2023-04-22T19:53:25.546Z,10.38
2023-04-22T19:55:52.995Z,10.25
2023-04-22T19:58:20.891Z,10.32
2023-04-22T20:00:48.150Z,9.90
2023-04-22T20:03:15.974Z,11.68
2023-04-22T20:05:43.811Z,10.50
2023-04-22T20:08:11.824Z,11.18
2023-04-22T20:10:38.697Z,10.82
2023-04-22T20:13:05.811Z,11.35
2023-04-22T20:15:33.212Z,11.10
2023-04-22T20:17:59.985Z,11.77
2023-04-22T20:20:27.492Z,11.05
2023-04-22T20:22:57.509Z,12.98
2023-04-22T20:25:24.860Z,12.75
2023-04-22T20:27:52.702Z,12.23
2023-04-22T20:30:19.449Z,12.50
2023-04-22T20:32:46.309Z,13.25
2023-04-22T20:35:14.919Z,13.00
2023-04-22T20:37:41.836Z,13.02
2023-04-22T20:40:28.852Z,13.30
2023-04-22T20:42:58.530Z,13.32
2023-04-22T20:45:25.887Z,13.32
2023-04-22T20:47:53.384Z,13.88
2023-04-22T20:50:20.795Z,13.60
2023-04-22T20:52:49.968Z,13.88
2023-04-22T20:55:17.304Z,13.65
2023-04-22T20:58:20.147Z,13.75
2023-04-22T21:01:01.289Z,13.40
2023-04-22T21:03:28.190Z,13.68
2023-04-22T21:05:57.011Z,14.52
2023-04-22T21:08:26.254Z,14.85
2023-04-22T21:10:55.066Z,14.43
2023-04-22T21:13:22.929Z,13.98
2023-04-22T21:15:58.853Z,15.07
2023-04-22T21:18:26.865Z,15.75
2023-04-22T21:20:56.240Z,16.33
2023-04-22T21:23:26.658Z,14.57
2023-04-22T21:25:59.224Z,15.25
2023-04-22T21:28:26.454Z,15.48
2023-04-22T21:30:53.630Z,15.57
2023-04-22T21:33:20.544Z,15.18
2023-04-22T21:35:47.610Z,15.23
2023-04-22T21:38:16.329Z,16.38
2023-04-22T21:40:42.956Z,15.88
2023-04-22T21:43:09.736Z,15.38
2023-04-22T21:45:36.355Z,15.55
2023-04-22T21:48:03.904Z,15.02
2023-04-22T21:50:31.311Z,14.65
2023-04-22T21:52:58.270Z,14.85
2023-04-22T21:55:24.896Z,15.48
2023-04-22T21:57:51.779Z,15.43
2023-04-22T22:00:19.155Z,15.55
2023-04-22T22:02:47.076Z,14.68
2023-04-22T22:05:15.317Z,15.57
2023-04-22T22:07:43.347Z,16.48
2023-04-22T22:10:14.219Z,15.95
2023-04-22T22:12:41.654Z,16.85
2023-04-22T22:15:09.039Z,16.85
2023-04-22T22:17:37.967Z,16.15
2023-04-22T22:20:11.149Z,15.93
2023-04-22T22:22:39.146Z,16.48
2023-04-22T22:25:10.944Z,16.42
2023-04-22T22:27:40.603Z,17.52
2023-04-22T22:30:08.236Z,16.25
2023-04-22T22:32:35.368Z,15.52
2023-04-22T22:35:02.229Z,16.50
2023-04-22T22:37:29.069Z,15.88
2023-04-22T22:39:56.514Z,16.95
2023-04-22T22:42:23.282Z,15.35
2023-04-22T22:44:50.011Z,14.30
2023-04-22T22:47:17.650Z,13.68
2023-04-22T22:49:45.104Z,14.30
2023-04-22T22:52:12.917Z,13.85
2023-04-22T22:54:40.534Z,13.82
2023-04-22T22:57:08.106Z,14.07
2023-04-22T22:59:35.883Z,14.25
2023-04-22T23:02:03.357Z,14.02
2023-04-22T23:04:30.463Z,14.45
2023-04-22T23:06:57.306Z,14.98
2023-04-22T23:09:24.009Z,14.27
2023-04-22T23:11:55.296Z,15.55
2023-04-22T23:14:23.550Z,15.13
2023-04-22T23:16:51.337Z,15.48
2023-04-22T23:19:18.429Z,15.65
2023-04-22T23:21:46.162Z,15.32
2023-04-22T23:24:16.743Z,16.83
2023-04-22T23:26:43.849Z,16.95
2023-04-22T23:29:10.855Z,18.23
2023-04-22T23:31:40.226Z,16.98
2023-04-22T23:34:06.976Z,15.68
2023-04-22T23:36:36.739Z,14.50
2023-04-22T23:39:04.621Z,15.25
2023-04-22T23:41:31.198Z,14.73
2023-04-22T23:43:57.990Z,13.90
2023-04-22T23:46:24.817Z,13.93
2023-04-22T23:48:51.930Z,14.38
2023-04-22T23:51:18.697Z,14.95
2023-04-22T23:53:45.928Z,14.50
2023-04-22T23:56:13.548Z,14.23
2023-04-22T23:58:40.454Z,13.77
